»·PEaware :: N4818D KSNA-KCRQ

N4818D :: KSNA-KCRQ

FLIGHT INFORMATION

Flight Status: Arrived
Operator: Privately registered:
United States
More flights under this callsign
Pilot: Ryan V. (26764)
Aircraft: CESSNA 172 SKYHAWK
(C172)
More flights by this aircraft type
Origin: KSNA John Wayne-Orange Co
United States
Destination: KCRQ McClellan-Palomar
United States
More flights between these airports :: More routes between these airports
Route: V23 OCN
File this flight plan on PilotEdge
Remarks:
Altitude:
(Current/Filed)
5,000ft
Speed:
(Current/Filed)
110kts
Departed: 13-Feb-20 04:38 PM
Arrived: 13-Feb-20 05:17 PM
Distance/Time
Traveled:
44nm/0:39
Distance/Time
To Go:
Arrived

Flight Plot

Page will automatically refresh every two minutes.


Map Options




Map Legend


Flown Route
Filed Route
Departure Airport
Arrival Airport
Navaid (VOR, NDB)
Fix

Horizontal Profiles

Position Reports

Time Latitude Longitude Heading Altitude Ground
Speed
13-Feb-20 16:25 33.675627 -117.871061 40 60ft 0kts
13-Feb-20 16:26 33.675627 -117.871061 40 60ft 0kts
13-Feb-20 16:27 33.675627 -117.871061 40 60ft 0kts
13-Feb-20 16:28 33.675627 -117.871061 40 60ft 0kts
13-Feb-20 16:29 33.675627 -117.871061 40 60ft 0kts
13-Feb-20 16:30 33.675627 -117.871061 40 60ft 0kts
13-Feb-20 16:31 33.675627 -117.871061 40 60ft 0kts
13-Feb-20 16:32 33.675627 -117.871061 40 60ft 0kts
13-Feb-20 16:33 33.675627 -117.871061 40 60ft 0kts
13-Feb-20 16:34 33.675627 -117.871061 40 60ft 0kts
13-Feb-20 16:35 33.679704 -117.867922 23 60ft 32kts
13-Feb-20 16:36 33.681243 -117.866690 73 60ft 0kts
13-Feb-20 16:37 33.670356 -117.872210 209 512ft 71kts
13-Feb-20 16:38 33.651170 -117.874868 186 1535ft 66kts
13-Feb-20 16:39 33.631785 -117.876206 177 2421ft 69kts
13-Feb-20 16:40 33.611875 -117.879516 169 3242ft 76kts
13-Feb-20 16:41 33.602237 -117.856642 109 4058ft 81kts
13-Feb-20 16:42 33.594416 -117.831481 128 4804ft 82kts
13-Feb-20 16:43 33.574733 -117.808023 137 5011ft 120kts
13-Feb-20 16:44 33.548855 -117.779709 137 5008ft 128kts
13-Feb-20 16:45 33.524058 -117.748831 133 5008ft 128kts
13-Feb-20 16:46 33.499392 -117.717849 137 5007ft 128kts
13-Feb-20 16:47 33.473790 -117.688136 137 5007ft 128kts
13-Feb-20 16:48 33.447732 -117.658749 133 5005ft 129kts
13-Feb-20 16:49 33.428757 -117.639605 135 5008ft 135kts
13-Feb-20 16:51 33.402309 -117.607679 128 5008ft 135kts
13-Feb-20 16:52 33.376351 -117.574951 134 5003ft 135kts
13-Feb-20 16:53 33.348308 -117.545283 135 5006ft 134kts
13-Feb-20 16:54 33.321920 -117.514102 130 5004ft 133kts
13-Feb-20 16:55 33.295947 -117.482500 132 5003ft 133kts
13-Feb-20 16:56 33.269466 -117.451734 133 5002ft 132kts
13-Feb-20 16:57 33.243205 -117.420774 125 5002ft 132kts
13-Feb-20 16:58 33.239785 -117.378112 89 4999ft 130kts
13-Feb-20 16:59 33.238952 -117.334676 90 5000ft 130kts
13-Feb-20 17:00 33.238007 -117.291392 89 4999ft 130kts
13-Feb-20 17:01 33.236950 -117.248007 89 4999ft 130kts
13-Feb-20 17:02 33.235765 -117.204547 89 4999ft 131kts
13-Feb-20 17:03 33.234405 -117.160973 89 4999ft 131kts
13-Feb-20 17:04 33.233469 -117.117099 89 4999ft 133kts
13-Feb-20 17:05 33.220921 -117.078133 117 4970ft 114kts
13-Feb-20 17:06 33.209336 -117.048456 109 4884ft 97kts
13-Feb-20 17:07 33.197456 -117.020712 141 5164ft 96kts
13-Feb-20 17:08 33.176070 -117.034612 220 4568ft 104kts
13-Feb-20 17:09 33.163696 -117.064444 257 3838ft 101kts
13-Feb-20 17:10 33.157383 -117.094768 259 3084ft 82kts
13-Feb-20 17:10 33.155124 -117.117255 253 2626ft 82kts
13-Feb-20 17:12 33.149531 -117.149467 254 2639ft 84kts
13-Feb-20 17:13 33.145651 -117.177905 258 2052ft 88kts
13-Feb-20 17:13 33.140721 -117.201756 259 1637ft 89kts
13-Feb-20 17:15 33.135535 -117.235332 259 1035ft 87kts
13-Feb-20 17:15 33.131673 -117.258871 261 624ft 85kts
13-Feb-20 17:16 33.128352 -117.279054 225 335ft 11kts
13-Feb-20 17:17 33.127326 -117.280007 187 335ft 11kts

Navigation Log

Ident Type
Flight plan parsing failed, navigation log unavailable